sensor_id;sensor_type;location;lat;lon;timestamp;temperature;humidity
82851;DHT22;72609;45.768;4.884;2023-11-21T00:01:54;12.00;81.70
82851;DHT22;72609;45.768;4.884;2023-11-21T00:04:20;12.00;81.70
82851;DHT22;72609;45.768;4.884;2023-11-21T00:06:46;11.90;82.10
82851;DHT22;72609;45.768;4.884;2023-11-21T00:09:13;11.90;82.90
82851;DHT22;72609;45.768;4.884;2023-11-21T00:11:41;11.80;83.00
82851;DHT22;72609;45.768;4.884;2023-11-21T00:14:06;11.90;83.00
82851;DHT22;72609;45.768;4.884;2023-11-21T00:16:33;11.80;82.80
82851;DHT22;72609;45.768;4.884;2023-11-21T00:18:59;11.80;83.70
82851;DHT22;72609;45.768;4.884;2023-11-21T00:21:25;11.80;83.40
82851;DHT22;72609;45.768;4.884;2023-11-21T00:23:50;11.80;83.40
82851;DHT22;72609;45.768;4.884;2023-11-21T00:26:16;11.80;83.40
82851;DHT22;72609;45.768;4.884;2023-11-21T00:28:42;11.80;83.50
82851;DHT22;72609;45.768;4.884;2023-11-21T00:31:08;11.90;83.60
82851;DHT22;72609;45.768;4.884;2023-11-21T00:33:33;11.80;83.50
82851;DHT22;72609;45.768;4.884;2023-11-21T00:35:59;11.80;83.60
82851;DHT22;72609;45.768;4.884;2023-11-21T00:38:26;11.70;83.80
82851;DHT22;72609;45.768;4.884;2023-11-21T00:40:52;11.70;84.00
82851;DHT22;72609;45.768;4.884;2023-11-21T00:43:24;11.70;84.00
82851;DHT22;72609;45.768;4.884;2023-11-21T00:45:49;11.60;84.30
82851;DHT22;72609;45.768;4.884;2023-11-21T00:48:15;11.60;84.20
82851;DHT22;72609;45.768;4.884;2023-11-21T00:50:41;11.60;84.10
82851;DHT22;72609;45.768;4.884;2023-11-21T00:53:06;11.60;83.90
82851;DHT22;72609;45.768;4.884;2023-11-21T00:55:33;11.60;84.10
82851;DHT22;72609;45.768;4.884;2023-11-21T00:57:59;11.70;84.00
82851;DHT22;72609;45.768;4.884;2023-11-21T01:00:25;11.70;84.00
82851;DHT22;72609;45.768;4.884;2023-11-21T01:02:50;11.70;83.80
82851;DHT22;72609;45.768;4.884;2023-11-21T01:05:16;11.70;83.70
82851;DHT22;72609;45.768;4.884;2023-11-21T01:07:42;11.70;83.80
82851;DHT22;72609;45.768;4.884;2023-11-21T01:10:08;11.60;83.80
82851;DHT22;72609;45.768;4.884;2023-11-21T01:12:35;11.60;83.90
82851;DHT22;72609;45.768;4.884;2023-11-21T01:15:03;11.60;83.80
82851;DHT22;72609;45.768;4.884;2023-11-21T01:17:29;11.60;83.60
82851;DHT22;72609;45.768;4.884;2023-11-21T01:19:54;11.60;83.80
82851;DHT22;72609;45.768;4.884;2023-11-21T01:22:21;11.50;83.80
82851;DHT22;72609;45.768;4.884;2023-11-21T01:24:53;11.50;84.00
82851;DHT22;72609;45.768;4.884;2023-11-21T01:27:20;11.60;84.20
82851;DHT22;72609;45.768;4.884;2023-11-21T01:29:45;11.60;84.20
82851;DHT22;72609;45.768;4.884;2023-11-21T01:32:11;11.60;84.20
82851;DHT22;72609;45.768;4.884;2023-11-21T01:34:37;11.70;84.10
82851;DHT22;72609;45.768;4.884;2023-11-21T01:37:03;11.70;84.00
82851;DHT22;72609;45.768;4.884;2023-11-21T01:39:30;11.70;84.00
82851;DHT22;72609;45.768;4.884;2023-11-21T01:41:57;11.70;84.00
82851;DHT22;72609;45.768;4.884;2023-11-21T01:44:24;11.70;84.00
82851;DHT22;72609;45.768;4.884;2023-11-21T01:46:50;11.70;84.00
82851;DHT22;72609;45.768;4.884;2023-11-21T01:49:17;11.70;83.90
82851;DHT22;72609;45.768;4.884;2023-11-21T01:51:48;11.70;83.80
82851;DHT22;72609;45.768;4.884;2023-11-21T01:54:16;11.70;83.80
82851;DHT22;72609;45.768;4.884;2023-11-21T01:56:44;11.70;83.70
82851;DHT22;72609;45.768;4.884;2023-11-21T01:59:12;11.70;83.50
82851;DHT22;72609;45.768;4.884;2023-11-21T02:01:39;11.70;83.80
82851;DHT22;72609;45.768;4.884;2023-11-21T02:04:05;11.70;84.00
82851;DHT22;72609;45.768;4.884;2023-11-21T02:06:33;11.60;83.70
82851;DHT22;72609;45.768;4.884;2023-11-21T02:08:59;11.60;83.60
82851;DHT22;72609;45.768;4.884;2023-11-21T02:11:25;11.60;83.60
82851;DHT22;72609;45.768;4.884;2023-11-21T02:13:51;11.50;83.90
82851;DHT22;72609;45.768;4.884;2023-11-21T02:16:19;11.50;84.30
82851;DHT22;72609;45.768;4.884;2023-11-21T02:18:46;11.50;84.20
82851;DHT22;72609;45.768;4.884;2023-11-21T02:21:14;11.40;84.60
82851;DHT22;72609;45.768;4.884;2023-11-21T02:23:39;11.40;84.30
82851;DHT22;72609;45.768;4.884;2023-11-21T02:26:10;11.30;84.50
82851;DHT22;72609;45.768;4.884;2023-11-21T02:28:36;11.30;84.70
82851;DHT22;72609;45.768;4.884;2023-11-21T02:31:01;11.30;84.80
82851;DHT22;72609;45.768;4.884;2023-11-21T02:33:28;11.30;85.10
82851;DHT22;72609;45.768;4.884;2023-11-21T02:35:54;11.30;85.00
82851;DHT22;72609;45.768;4.884;2023-11-21T02:38:21;11.30;84.80
82851;DHT22;72609;45.768;4.884;2023-11-21T02:40:46;11.40;84.90
82851;DHT22;72609;45.768;4.884;2023-11-21T02:43:12;11.40;85.60
82851;DHT22;72609;45.768;4.884;2023-11-21T02:45:37;11.40;85.10
82851;DHT22;72609;45.768;4.884;2023-11-21T02:48:03;11.40;85.00
82851;DHT22;72609;45.768;4.884;2023-11-21T02:50:29;11.40;85.00
82851;DHT22;72609;45.768;4.884;2023-11-21T02:52:55;11.40;84.90
82851;DHT22;72609;45.768;4.884;2023-11-21T02:55:23;11.40;84.80
82851;DHT22;72609;45.768;4.884;2023-11-21T02:57:50;11.40;85.60
82851;DHT22;72609;45.768;4.884;2023-11-21T03:00:16;11.40;85.30
82851;DHT22;72609;45.768;4.884;2023-11-21T03:02:42;11.40;85.60
82851;DHT22;72609;45.768;4.884;2023-11-21T03:05:09;11.40;85.40
82851;DHT22;72609;45.768;4.884;2023-11-21T03:07:36;11.40;85.30
82851;DHT22;72609;45.768;4.884;2023-11-21T03:10:03;11.40;85.30
82851;DHT22;72609;45.768;4.884;2023-11-21T03:12:29;11.50;85.40
82851;DHT22;72609;45.768;4.884;2023-11-21T03:14:55;11.50;85.30
82851;DHT22;72609;45.768;4.884;2023-11-21T03:17:21;11.50;85.30
82851;DHT22;72609;45.768;4.884;2023-11-21T03:19:48;11.50;85.20
82851;DHT22;72609;45.768;4.884;2023-11-21T03:22:13;11.50;85.10
82851;DHT22;72609;45.768;4.884;2023-11-21T03:24:39;11.60;85.80
82851;DHT22;72609;45.768;4.884;2023-11-21T03:27:05;11.50;85.30
82851;DHT22;72609;45.768;4.884;2023-11-21T03:29:30;11.50;85.50
82851;DHT22;72609;45.768;4.884;2023-11-21T03:31:56;11.50;85.50
82851;DHT22;72609;45.768;4.884;2023-11-21T03:34:27;11.50;85.90
82851;DHT22;72609;45.768;4.884;2023-11-21T03:36:53;11.50;85.80
82851;DHT22;72609;45.768;4.884;2023-11-21T03:39:22;11.50;85.70
82851;DHT22;72609;45.768;4.884;2023-11-21T03:41:48;11.50;85.60
82851;DHT22;72609;45.768;4.884;2023-11-21T03:44:14;11.50;86.40
82851;DHT22;72609;45.768;4.884;2023-11-21T03:46:40;11.50;85.40
82851;DHT22;72609;45.768;4.884;2023-11-21T03:49:06;11.50;85.50
82851;DHT22;72609;45.768;4.884;2023-11-21T03:51:31;11.50;85.00
82851;DHT22;72609;45.768;4.884;2023-11-21T03:53:57;11.50;85.00
82851;DHT22;72609;45.768;4.884;2023-11-21T03:56:22;11.40;85.00
82851;DHT22;72609;45.768;4.884;2023-11-21T03:58:49;11.40;85.00
82851;DHT22;72609;45.768;4.884;2023-11-21T04:01:24;11.40;85.30
82851;DHT22;72609;45.768;4.884;2023-11-21T04:03:50;11.40;85.80
82851;DHT22;72609;45.768;4.884;2023-11-21T04:06:16;11.40;86.20
82851;DHT22;72609;45.768;4.884;2023-11-21T04:08:45;11.40;86.10
82851;DHT22;72609;45.768;4.884;2023-11-21T04:11:11;11.40;86.80
82851;DHT22;72609;45.768;4.884;2023-11-21T04:13:40;11.40;86.40
82851;DHT22;72609;45.768;4.884;2023-11-21T04:16:07;11.40;86.30
82851;DHT22;72609;45.768;4.884;2023-11-21T04:18:35;11.50;86.10
82851;DHT22;72609;45.768;4.884;2023-11-21T04:21:01;11.50;86.20
82851;DHT22;72609;45.768;4.884;2023-11-21T04:23:29;11.50;85.90
82851;DHT22;72609;45.768;4.884;2023-11-21T04:25:54;11.50;85.70
82851;DHT22;72609;45.768;4.884;2023-11-21T04:28:23;11.50;85.70
82851;DHT22;72609;45.768;4.884;2023-11-21T04:30:49;11.50;85.70
82851;DHT22;72609;45.768;4.884;2023-11-21T04:33:15;11.50;85.80
82851;DHT22;72609;45.768;4.884;2023-11-21T04:35:41;11.50;85.90
82851;DHT22;72609;45.768;4.884;2023-11-21T04:38:07;11.50;86.30
82851;DHT22;72609;45.768;4.884;2023-11-21T04:40:32;11.50;86.20
82851;DHT22;72609;45.768;4.884;2023-11-21T04:42:58;11.50;85.70
82851;DHT22;72609;45.768;4.884;2023-11-21T04:45:24;11.50;86.30
82851;DHT22;72609;45.768;4.884;2023-11-21T04:47:49;11.50;85.90
82851;DHT22;72609;45.768;4.884;2023-11-21T04:50:15;11.50;86.20
82851;DHT22;72609;45.768;4.884;2023-11-21T04:52:40;11.50;85.90
82851;DHT22;72609;45.768;4.884;2023-11-21T04:55:06;11.50;86.30
82851;DHT22;72609;45.768;4.884;2023-11-21T04:57:35;11.40;86.10
82851;DHT22;72609;45.768;4.884;2023-11-21T05:00:01;11.40;86.40
82851;DHT22;72609;45.768;4.884;2023-11-21T05:02:31;11.50;86.10
82851;DHT22;72609;45.768;4.884;2023-11-21T05:04:57;11.50;86.30
82851;DHT22;72609;45.768;4.884;2023-11-21T05:07:23;11.50;86.30
82851;DHT22;72609;45.768;4.884;2023-11-21T05:09:49;11.50;86.20
82851;DHT22;72609;45.768;4.884;2023-11-21T05:12:15;11.50;86.10
82851;DHT22;72609;45.768;4.884;2023-11-21T05:14:41;11.50;86.00
82851;DHT22;72609;45.768;4.884;2023-11-21T05:17:07;11.40;86.10
82851;DHT22;72609;45.768;4.884;2023-11-21T05:19:33;11.40;85.60
82851;DHT22;72609;45.768;4.884;2023-11-21T05:22:00;11.40;85.90
82851;DHT22;72609;45.768;4.884;2023-11-21T05:24:26;11.30;85.80
82851;DHT22;72609;45.768;4.884;2023-11-21T05:26:51;11.30;86.60
82851;DHT22;72609;45.768;4.884;2023-11-21T05:29:18;11.30;86.90
82851;DHT22;72609;45.768;4.884;2023-11-21T05:31:43;11.30;86.40
82851;DHT22;72609;45.768;4.884;2023-11-21T05:34:09;11.40;86.60
82851;DHT22;72609;45.768;4.884;2023-11-21T05:36:35;11.40;86.50
82851;DHT22;72609;45.768;4.884;2023-11-21T05:39:03;11.40;86.80
82851;DHT22;72609;45.768;4.884;2023-11-21T05:41:35;11.40;86.50
82851;DHT22;72609;45.768;4.884;2023-11-21T05:44:01;11.30;87.00
82851;DHT22;72609;45.768;4.884;2023-11-21T05:46:27;11.40;86.50
82851;DHT22;72609;45.768;4.884;2023-11-21T05:48:52;11.30;86.50
82851;DHT22;72609;45.768;4.884;2023-11-21T05:51:18;11.30;86.60
82851;DHT22;72609;45.768;4.884;2023-11-21T05:53:44;11.30;86.40
82851;DHT22;72609;45.768;4.884;2023-11-21T05:56:10;11.40;86.50
82851;DHT22;72609;45.768;4.884;2023-11-21T05:58:35;11.30;86.50
82851;DHT22;72609;45.768;4.884;2023-11-21T06:01:01;11.40;86.30
82851;DHT22;72609;45.768;4.884;2023-11-21T06:03:28;11.30;86.20
82851;DHT22;72609;45.768;4.884;2023-11-21T06:05:54;11.30;86.30
82851;DHT22;72609;45.768;4.884;2023-11-21T06:08:22;11.30;86.50
82851;DHT22;72609;45.768;4.884;2023-11-21T06:10:48;11.30;86.10
82851;DHT22;72609;45.768;4.884;2023-11-21T06:13:14;11.30;85.90
82851;DHT22;72609;45.768;4.884;2023-11-21T06:15:40;11.20;86.00
82851;DHT22;72609;45.768;4.884;2023-11-21T06:18:05;11.20;85.50
82851;DHT22;72609;45.768;4.884;2023-11-21T06:20:35;11.20;86.60
82851;DHT22;72609;45.768;4.884;2023-11-21T06:23:02;11.10;86.70
82851;DHT22;72609;45.768;4.884;2023-11-21T06:25:29;11.10;87.10
82851;DHT22;72609;45.768;4.884;2023-11-21T06:27:55;11.10;87.10
82851;DHT22;72609;45.768;4.884;2023-11-21T06:30:21;11.20;87.50
82851;DHT22;72609;45.768;4.884;2023-11-21T06:32:48;11.20;87.30
82851;DHT22;72609;45.768;4.884;2023-11-21T06:35:15;11.20;86.80
82851;DHT22;72609;45.768;4.884;2023-11-21T06:37:41;11.20;86.50
82851;DHT22;72609;45.768;4.884;2023-11-21T06:40:07;11.30;86.60
82851;DHT22;72609;45.768;4.884;2023-11-21T06:42:33;11.30;86.70
82851;DHT22;72609;45.768;4.884;2023-11-21T06:45:03;11.30;86.50
82851;DHT22;72609;45.768;4.884;2023-11-21T06:47:29;11.30;86.00
82851;DHT22;72609;45.768;4.884;2023-11-21T06:49:56;11.30;86.10
82851;DHT22;72609;45.768;4.884;2023-11-21T06:52:21;11.30;86.60
82851;DHT22;72609;45.768;4.884;2023-11-21T06:54:48;11.30;85.80
82851;DHT22;72609;45.768;4.884;2023-11-21T06:57:16;11.30;86.60
82851;DHT22;72609;45.768;4.884;2023-11-21T06:59:42;11.30;87.00
82851;DHT22;72609;45.768;4.884;2023-11-21T07:02:08;11.30;86.60
82851;DHT22;72609;45.768;4.884;2023-11-21T07:04:35;11.30;87.00
82851;DHT22;72609;45.768;4.884;2023-11-21T07:07:02;11.30;87.30
82851;DHT22;72609;45.768;4.884;2023-11-21T07:09:28;11.30;87.30
82851;DHT22;72609;45.768;4.884;2023-11-21T07:11:53;11.30;86.20
82851;DHT22;72609;45.768;4.884;2023-11-21T07:14:19;11.30;86.20
82851;DHT22;72609;45.768;4.884;2023-11-21T07:16:46;11.20;86.10
82851;DHT22;72609;45.768;4.884;2023-11-21T07:19:12;11.30;87.30
82851;DHT22;72609;45.768;4.884;2023-11-21T07:21:39;11.30;87.20
82851;DHT22;72609;45.768;4.884;2023-11-21T07:24:06;11.30;86.60
82851;DHT22;72609;45.768;4.884;2023-11-21T07:26:32;11.30;87.60
82851;DHT22;72609;45.768;4.884;2023-11-21T07:29:02;11.20;87.20
82851;DHT22;72609;45.768;4.884;2023-11-21T07:31:28;11.20;87.30
82851;DHT22;72609;45.768;4.884;2023-11-21T07:33:55;11.20;87.10
82851;DHT22;72609;45.768;4.884;2023-11-21T07:36:23;11.20;87.60
82851;DHT22;72609;45.768;4.884;2023-11-21T07:38:49;11.20;87.80
82851;DHT22;72609;45.768;4.884;2023-11-21T07:41:14;11.20;88.10
82851;DHT22;72609;45.768;4.884;2023-11-21T07:43:41;11.20;87.70
82851;DHT22;72609;45.768;4.884;2023-11-21T07:46:07;11.20;86.90
82851;DHT22;72609;45.768;4.884;2023-11-21T07:48:33;11.20;86.80
82851;DHT22;72609;45.768;4.884;2023-11-21T07:51:02;11.30;87.10
82851;DHT22;72609;45.768;4.884;2023-11-21T07:53:32;11.30;86.90
82851;DHT22;72609;45.768;4.884;2023-11-21T07:56:07;11.30;88.10
82851;DHT22;72609;45.768;4.884;2023-11-21T07:58:37;11.30;87.30
82851;DHT22;72609;45.768;4.884;2023-11-21T08:01:03;11.30;87.50
82851;DHT22;72609;45.768;4.884;2023-11-21T08:03:29;11.30;87.10
82851;DHT22;72609;45.768;4.884;2023-11-21T08:05:56;11.30;87.10
82851;DHT22;72609;45.768;4.884;2023-11-21T08:08:22;11.30;86.80
82851;DHT22;72609;45.768;4.884;2023-11-21T08:10:47;11.30;87.60
82851;DHT22;72609;45.768;4.884;2023-11-21T08:13:25;11.30;87.00
82851;DHT22;72609;45.768;4.884;2023-11-21T08:15:54;11.30;86.90
82851;DHT22;72609;45.768;4.884;2023-11-21T08:18:20;11.40;86.80
82851;DHT22;72609;45.768;4.884;2023-11-21T08:20:45;11.40;87.30
82851;DHT22;72609;45.768;4.884;2023-11-21T08:23:15;11.40;86.80
82851;DHT22;72609;45.768;4.884;2023-11-21T08:25:43;11.40;86.80
82851;DHT22;72609;45.768;4.884;2023-11-21T08:28:08;11.40;87.40
82851;DHT22;72609;45.768;4.884;2023-11-21T08:30:34;11.40;86.90
82851;DHT22;72609;45.768;4.884;2023-11-21T08:33:00;11.40;86.80
82851;DHT22;72609;45.768;4.884;2023-11-21T08:35:26;11.50;86.90
82851;DHT22;72609;45.768;4.884;2023-11-21T08:37:52;11.40;86.80
82851;DHT22;72609;45.768;4.884;2023-11-21T08:40:21;11.50;87.00
82851;DHT22;72609;45.768;4.884;2023-11-21T08:42:47;11.50;87.30
82851;DHT22;72609;45.768;4.884;2023-11-21T08:45:16;11.50;87.20
82851;DHT22;72609;45.768;4.884;2023-11-21T08:47:43;11.50;87.40
82851;DHT22;72609;45.768;4.884;2023-11-21T08:50:09;11.50;87.20
82851;DHT22;72609;45.768;4.884;2023-11-21T08:52:37;11.50;87.20
82851;DHT22;72609;45.768;4.884;2023-11-21T08:55:04;11.50;87.20
82851;DHT22;72609;45.768;4.884;2023-11-21T08:57:34;11.50;87.40
82851;DHT22;72609;45.768;4.884;2023-11-21T09:00:01;11.50;87.50
82851;DHT22;72609;45.768;4.884;2023-11-21T09:02:26;11.50;87.60
82851;DHT22;72609;45.768;4.884;2023-11-21T09:04:52;11.50;87.30
82851;DHT22;72609;45.768;4.884;2023-11-21T09:07:21;11.50;87.80
82851;DHT22;72609;45.768;4.884;2023-11-21T09:09:47;11.50;87.80
82851;DHT22;72609;45.768;4.884;2023-11-21T09:12:13;11.50;87.50
82851;DHT22;72609;45.768;4.884;2023-11-21T09:14:39;11.50;88.00
82851;DHT22;72609;45.768;4.884;2023-11-21T09:17:05;11.50;88.00
82851;DHT22;72609;45.768;4.884;2023-11-21T09:19:37;11.40;87.30
82851;DHT22;72609;45.768;4.884;2023-11-21T09:22:02;11.30;87.70
82851;DHT22;72609;45.768;4.884;2023-11-21T09:24:28;11.30;87.90
82851;DHT22;72609;45.768;4.884;2023-11-21T09:26:54;11.20;88.10
82851;DHT22;72609;45.768;4.884;2023-11-21T09:29:19;11.20;88.10
82851;DHT22;72609;45.768;4.884;2023-11-21T09:31:45;11.20;88.00
82851;DHT22;72609;45.768;4.884;2023-11-21T09:34:10;11.30;88.10
82851;DHT22;72609;45.768;4.884;2023-11-21T09:36:36;11.30;88.40
82851;DHT22;72609;45.768;4.884;2023-11-21T09:39:04;11.30;88.00
82851;DHT22;72609;45.768;4.884;2023-11-21T09:41:57;11.30;88.00
82851;DHT22;72609;45.768;4.884;2023-11-21T09:47:22;11.40;87.70
82851;DHT22;72609;45.768;4.884;2023-11-21T09:49:48;11.40;87.90
82851;DHT22;72609;45.768;4.884;2023-11-21T09:52:28;11.40;87.30
82851;DHT22;72609;45.768;4.884;2023-11-21T09:54:56;11.40;87.50
82851;DHT22;72609;45.768;4.884;2023-11-21T09:57:25;11.40;87.30
82851;DHT22;72609;45.768;4.884;2023-11-21T09:59:54;11.40;87.50
82851;DHT22;72609;45.768;4.884;2023-11-21T10:02:28;11.40;87.60
82851;DHT22;72609;45.768;4.884;2023-11-21T10:04:56;11.50;87.60
82851;DHT22;72609;45.768;4.884;2023-11-21T10:07:22;11.50;87.60
82851;DHT22;72609;45.768;4.884;2023-11-21T10:09:50;11.50;87.40
82851;DHT22;72609;45.768;4.884;2023-11-21T10:12:16;11.50;87.20
82851;DHT22;72609;45.768;4.884;2023-11-21T10:14:42;11.50;87.00
82851;DHT22;72609;45.768;4.884;2023-11-21T10:17:12;11.50;86.70
82851;DHT22;72609;45.768;4.884;2023-11-21T10:19:39;11.50;86.90
82851;DHT22;72609;45.768;4.884;2023-11-21T10:22:05;11.60;87.20
82851;DHT22;72609;45.768;4.884;2023-11-21T10:24:32;11.60;86.70
82851;DHT22;72609;45.768;4.884;2023-11-21T10:26:58;11.60;86.70
82851;DHT22;72609;45.768;4.884;2023-11-21T10:29:23;11.60;86.50
82851;DHT22;72609;45.768;4.884;2023-11-21T10:31:50;11.70;86.60
82851;DHT22;72609;45.768;4.884;2023-11-21T10:34:18;11.70;86.30
82851;DHT22;72609;45.768;4.884;2023-11-21T10:36:44;11.60;85.30
82851;DHT22;72609;45.768;4.884;2023-11-21T10:39:13;11.50;85.10
82851;DHT22;72609;45.768;4.884;2023-11-21T10:41:38;11.50;85.80
82851;DHT22;72609;45.768;4.884;2023-11-21T10:44:05;11.50;86.00
82851;DHT22;72609;45.768;4.884;2023-11-21T10:46:34;11.50;84.50
82851;DHT22;72609;45.768;4.884;2023-11-21T10:49:00;11.50;85.40
82851;DHT22;72609;45.768;4.884;2023-11-21T10:51:26;11.60;86.20
82851;DHT22;72609;45.768;4.884;2023-11-21T10:53:52;11.60;85.80
82851;DHT22;72609;45.768;4.884;2023-11-21T10:56:18;11.60;84.80
82851;DHT22;72609;45.768;4.884;2023-11-21T10:58:48;11.60;85.20
82851;DHT22;72609;45.768;4.884;2023-11-21T11:01:16;11.60;85.30
82851;DHT22;72609;45.768;4.884;2023-11-21T11:03:43;11.70;85.20
82851;DHT22;72609;45.768;4.884;2023-11-21T11:06:09;11.70;84.90
82851;DHT22;72609;45.768;4.884;2023-11-21T11:08:37;11.80;84.50
82851;DHT22;72609;45.768;4.884;2023-11-21T11:11:05;11.80;83.70
82851;DHT22;72609;45.768;4.884;2023-11-21T11:13:31;11.80;84.30
82851;DHT22;72609;45.768;4.884;2023-11-21T11:16:01;11.80;84.70
82851;DHT22;72609;45.768;4.884;2023-11-21T11:18:30;11.80;84.30
82851;DHT22;72609;45.768;4.884;2023-11-21T11:21:07;11.80;83.60
82851;DHT22;72609;45.768;4.884;2023-11-21T11:26:39;11.70;84.10
82851;DHT22;72609;45.768;4.884;2023-11-21T11:37:18;11.70;82.90
82851;DHT22;72609;45.768;4.884;2023-11-21T11:39:44;11.70;82.50
82851;DHT22;72609;45.768;4.884;2023-11-21T11:42:15;11.70;82.50
82851;DHT22;72609;45.768;4.884;2023-11-21T11:47:26;11.70;82.10
82851;DHT22;72609;45.768;4.884;2023-11-21T11:50:06;11.70;82.10
82851;DHT22;72609;45.768;4.884;2023-11-21T11:52:37;11.70;82.00
82851;DHT22;72609;45.768;4.884;2023-11-21T11:55:07;11.70;82.10
82851;DHT22;72609;45.768;4.884;2023-11-21T11:57:35;11.80;82.90
82851;DHT22;72609;45.768;4.884;2023-11-21T12:00:20;11.80;82.20
82851;DHT22;72609;45.768;4.884;2023-11-21T12:02:51;11.80;84.00
82851;DHT22;72609;45.768;4.884;2023-11-21T12:05:19;11.80;82.10
82851;DHT22;72609;45.768;4.884;2023-11-21T12:07:46;11.80;81.80
82851;DHT22;72609;45.768;4.884;2023-11-21T12:10:17;11.80;82.50
82851;DHT22;72609;45.768;4.884;2023-11-21T12:12:48;11.80;82.50
82851;DHT22;72609;45.768;4.884;2023-11-21T12:15:14;11.80;83.30
82851;DHT22;72609;45.768;4.884;2023-11-21T12:17:42;11.80;83.70
82851;DHT22;72609;45.768;4.884;2023-11-21T12:20:09;11.80;84.00
82851;DHT22;72609;45.768;4.884;2023-11-21T12:22:42;11.80;84.10
82851;DHT22;72609;45.768;4.884;2023-11-21T12:25:08;11.80;83.50
82851;DHT22;72609;45.768;4.884;2023-11-21T12:27:33;11.80;83.50
82851;DHT22;72609;45.768;4.884;2023-11-21T12:30:00;11.90;84.40
82851;DHT22;72609;45.768;4.884;2023-11-21T12:32:26;11.90;84.20
82851;DHT22;72609;45.768;4.884;2023-11-21T12:34:52;11.90;83.10
82851;DHT22;72609;45.768;4.884;2023-11-21T12:37:18;11.80;82.60
82851;DHT22;72609;45.768;4.884;2023-11-21T12:39:43;11.70;82.00
82851;DHT22;72609;45.768;4.884;2023-11-21T12:42:09;11.80;83.00
82851;DHT22;72609;45.768;4.884;2023-11-21T12:44:35;11.70;81.30
82851;DHT22;72609;45.768;4.884;2023-11-21T12:47:03;11.70;83.00
82851;DHT22;72609;45.768;4.884;2023-11-21T12:49:28;11.70;82.70
82851;DHT22;72609;45.768;4.884;2023-11-21T12:51:54;11.70;83.10
82851;DHT22;72609;45.768;4.884;2023-11-21T12:54:20;11.70;82.10
82851;DHT22;72609;45.768;4.884;2023-11-21T12:56:46;11.70;81.00
82851;DHT22;72609;45.768;4.884;2023-11-21T12:59:15;11.70;82.60
82851;DHT22;72609;45.768;4.884;2023-11-21T13:01:42;11.70;82.30
82851;DHT22;72609;45.768;4.884;2023-11-21T13:04:08;11.80;82.30
82851;DHT22;72609;45.768;4.884;2023-11-21T13:06:36;11.70;82.40
82851;DHT22;72609;45.768;4.884;2023-11-21T13:09:07;11.70;82.40
82851;DHT22;72609;45.768;4.884;2023-11-21T13:11:36;11.80;82.20
82851;DHT22;72609;45.768;4.884;2023-11-21T13:14:02;11.70;82.20
82851;DHT22;72609;45.768;4.884;2023-11-21T13:16:29;11.70;83.40
82851;DHT22;72609;45.768;4.884;2023-11-21T13:18:55;11.70;82.90
82851;DHT22;72609;45.768;4.884;2023-11-21T13:21:21;11.70;84.00
82851;DHT22;72609;45.768;4.884;2023-11-21T13:23:47;11.70;84.00
82851;DHT22;72609;45.768;4.884;2023-11-21T13:26:16;11.70;83.10
82851;DHT22;72609;45.768;4.884;2023-11-21T13:28:41;11.70;83.70
82851;DHT22;72609;45.768;4.884;2023-11-21T13:31:11;11.70;83.40
82851;DHT22;72609;45.768;4.884;2023-11-21T13:33:48;11.70;82.90
82851;DHT22;72609;45.768;4.884;2023-11-21T13:36:21;11.70;82.70
82851;DHT22;72609;45.768;4.884;2023-11-21T13:38:49;11.80;83.00
82851;DHT22;72609;45.768;4.884;2023-11-21T13:41:15;11.80;82.70
82851;DHT22;72609;45.768;4.884;2023-11-21T13:43:42;11.70;83.40
82851;DHT22;72609;45.768;4.884;2023-11-21T13:46:13;11.70;84.40
82851;DHT22;72609;45.768;4.884;2023-11-21T13:48:42;11.70;84.50
82851;DHT22;72609;45.768;4.884;2023-11-21T13:51:12;11.70;84.50
82851;DHT22;72609;45.768;4.884;2023-11-21T13:53:46;11.70;84.80
82851;DHT22;72609;45.768;4.884;2023-11-21T13:56:15;11.60;85.10
82851;DHT22;72609;45.768;4.884;2023-11-21T13:58:52;11.70;85.10
82851;DHT22;72609;45.768;4.884;2023-11-21T14:01:23;11.70;85.10
82851;DHT22;72609;45.768;4.884;2023-11-21T14:04:02;11.80;85.10
82851;DHT22;72609;45.768;4.884;2023-11-21T14:06:37;11.70;85.10
82851;DHT22;72609;45.768;4.884;2023-11-21T14:09:14;11.80;85.50
82851;DHT22;72609;45.768;4.884;2023-11-21T14:14:18;11.80;85.10
82851;DHT22;72609;45.768;4.884;2023-11-21T14:16:44;11.70;84.90
82851;DHT22;72609;45.768;4.884;2023-11-21T14:19:10;11.70;84.50
82851;DHT22;72609;45.768;4.884;2023-11-21T14:21:41;11.60;83.20
82851;DHT22;72609;45.768;4.884;2023-11-21T14:24:11;11.60;84.10
82851;DHT22;72609;45.768;4.884;2023-11-21T14:26:43;11.60;84.20
82851;DHT22;72609;45.768;4.884;2023-11-21T14:29:09;11.60;83.50
82851;DHT22;72609;45.768;4.884;2023-11-21T14:31:38;11.60;84.00
82851;DHT22;72609;45.768;4.884;2023-11-21T14:34:03;11.60;83.70
82851;DHT22;72609;45.768;4.884;2023-11-21T14:36:32;11.60;83.30
82851;DHT22;72609;45.768;4.884;2023-11-21T14:38:58;11.60;83.20
82851;DHT22;72609;45.768;4.884;2023-11-21T14:41:23;11.60;83.00
82851;DHT22;72609;45.768;4.884;2023-11-21T14:43:51;11.50;82.40
82851;DHT22;72609;45.768;4.884;2023-11-21T14:46:16;11.60;83.00
82851;DHT22;72609;45.768;4.884;2023-11-21T14:48:45;11.50;82.20
82851;DHT22;72609;45.768;4.884;2023-11-21T14:51:24;11.50;81.70
82851;DHT22;72609;45.768;4.884;2023-11-21T14:53:59;11.50;82.00
82851;DHT22;72609;45.768;4.884;2023-11-21T14:56:35;11.50;82.20
82851;DHT22;72609;45.768;4.884;2023-11-21T14:59:03;11.60;82.20
82851;DHT22;72609;45.768;4.884;2023-11-21T15:01:38;11.60;81.90
82851;DHT22;72609;45.768;4.884;2023-11-21T15:04:21;11.60;82.20
82851;DHT22;72609;45.768;4.884;2023-11-21T15:07:06;11.60;82.50
82851;DHT22;72609;45.768;4.884;2023-11-21T15:09:32;11.60;81.70
82851;DHT22;72609;45.768;4.884;2023-11-21T15:11:58;11.60;82.40
82851;DHT22;72609;45.768;4.884;2023-11-21T15:14:34;11.50;82.10
82851;DHT22;72609;45.768;4.884;2023-11-21T15:17:02;11.50;81.80
82851;DHT22;72609;45.768;4.884;2023-11-21T15:19:28;11.50;81.90
82851;DHT22;72609;45.768;4.884;2023-11-21T15:21:57;11.50;81.20
82851;DHT22;72609;45.768;4.884;2023-11-21T15:24:23;11.60;81.20
82851;DHT22;72609;45.768;4.884;2023-11-21T15:26:50;11.60;81.70
82851;DHT22;72609;45.768;4.884;2023-11-21T15:29:16;11.50;79.60
82851;DHT22;72609;45.768;4.884;2023-11-21T15:31:42;11.60;80.20
82851;DHT22;72609;45.768;4.884;2023-11-21T15:34:16;11.50;79.90
82851;DHT22;72609;45.768;4.884;2023-11-21T15:36:42;11.50;79.80
82851;DHT22;72609;45.768;4.884;2023-11-21T15:39:08;11.50;80.00
82851;DHT22;72609;45.768;4.884;2023-11-21T15:41:38;11.50;80.10
82851;DHT22;72609;45.768;4.884;2023-11-21T15:44:05;11.50;80.20
82851;DHT22;72609;45.768;4.884;2023-11-21T15:46:34;11.50;80.20
82851;DHT22;72609;45.768;4.884;2023-11-21T15:49:01;11.50;80.60
82851;DHT22;72609;45.768;4.884;2023-11-21T15:51:29;11.40;80.40